sensor_id;sensor_type;location;lat;lon;timestamp;P1;durP1;ratioP1;P2;durP2;ratioP2
20970;SDS011;10644;48.834;10.088;2023-05-16T00:01:29;18.00;;;11.23;;
20970;SDS011;10644;48.834;10.088;2023-05-16T00:03:56;16.23;;;11.13;;
20970;SDS011;10644;48.834;10.088;2023-05-16T00:06:22;22.13;;;11.83;;
20970;SDS011;10644;48.834;10.088;2023-05-16T00:08:47;14.10;;;11.17;;
20970;SDS011;10644;48.834;10.088;2023-05-16T00:11:15;17.10;;;10.20;;
20970;SDS011;10644;48.834;10.088;2023-05-16T00:13:41;15.20;;;10.73;;
20970;SDS011;10644;48.834;10.088;2023-05-16T00:16:10;27.37;;;11.93;;
20970;SDS011;10644;48.834;10.088;2023-05-16T00:18:38;20.37;;;13.10;;
20970;SDS011;10644;48.834;10.088;2023-05-16T00:21:06;18.27;;;11.37;;
20970;SDS011;10644;48.834;10.088;2023-05-16T00:23:31;15.00;;;10.70;;
20970;SDS011;10644;48.834;10.088;2023-05-16T00:25:57;18.20;;;11.97;;
20970;SDS011;10644;48.834;10.088;2023-05-16T00:28:27;17.30;;;11.30;;
20970;SDS011;10644;48.834;10.088;2023-05-16T00:30:52;16.63;;;9.97;;
20970;SDS011;10644;48.834;10.088;2023-05-16T00:33:18;15.50;;;10.20;;
20970;SDS011;10644;48.834;10.088;2023-05-16T00:35:43;15.20;;;10.80;;
20970;SDS011;10644;48.834;10.088;2023-05-16T00:38:08;14.83;;;10.03;;
20970;SDS011;10644;48.834;10.088;2023-05-16T00:40:34;14.73;;;11.07;;
20970;SDS011;10644;48.834;10.088;2023-05-16T00:42:59;19.90;;;10.60;;
20970;SDS011;10644;48.834;10.088;2023-05-16T00:45:25;20.03;;;11.70;;
20970;SDS011;10644;48.834;10.088;2023-05-16T00:47:50;17.07;;;11.27;;
20970;SDS011;10644;48.834;10.088;2023-05-16T00:50:16;18.13;;;11.30;;
20970;SDS011;10644;48.834;10.088;2023-05-16T00:52:42;15.90;;;11.23;;
20970;SDS011;10644;48.834;10.088;2023-05-16T00:55:08;20.60;;;13.17;;
20970;SDS011;10644;48.834;10.088;2023-05-16T00:57:35;13.43;;;9.87;;
20970;SDS011;10644;48.834;10.088;2023-05-16T01:00:01;14.47;;;9.63;;
20970;SDS011;10644;48.834;10.088;2023-05-16T01:02:29;16.07;;;10.40;;
20970;SDS011;10644;48.834;10.088;2023-05-16T01:04:54;18.43;;;11.40;;
20970;SDS011;10644;48.834;10.088;2023-05-16T01:07:20;19.03;;;11.83;;
20970;SDS011;10644;48.834;10.088;2023-05-16T01:09:46;16.17;;;10.83;;
20970;SDS011;10644;48.834;10.088;2023-05-16T01:12:17;15.30;;;10.30;;
20970;SDS011;10644;48.834;10.088;2023-05-16T01:15:07;17.60;;;9.80;;
20970;SDS011;10644;48.834;10.088;2023-05-16T01:17:41;18.80;;;11.20;;
20970;SDS011;10644;48.834;10.088;2023-05-16T01:28:32;20.60;;;10.13;;
20970;SDS011;10644;48.834;10.088;2023-05-16T01:30:59;15.50;;;10.60;;
20970;SDS011;10644;48.834;10.088;2023-05-16T01:33:24;17.13;;;10.77;;
20970;SDS011;10644;48.834;10.088;2023-05-16T01:35:52;15.00;;;10.60;;
20970;SDS011;10644;48.834;10.088;2023-05-16T01:39:10;14.20;;;9.80;;
20970;SDS011;10644;48.834;10.088;2023-05-16T01:44:16;14.87;;;10.83;;
20970;SDS011;10644;48.834;10.088;2023-05-16T01:46:57;19.50;;;10.77;;
20970;SDS011;10644;48.834;10.088;2023-05-16T01:49:34;19.73;;;13.57;;
20970;SDS011;10644;48.834;10.088;2023-05-16T01:52:18;18.67;;;11.57;;
20970;SDS011;10644;48.834;10.088;2023-05-16T01:54:48;20.80;;;11.93;;
20970;SDS011;10644;48.834;10.088;2023-05-16T01:57:18;29.63;;;13.03;;
20970;SDS011;10644;48.834;10.088;2023-05-16T01:59:49;24.53;;;12.43;;
20970;SDS011;10644;48.834;10.088;2023-05-16T02:02:18;17.20;;;10.70;;
20970;SDS011;10644;48.834;10.088;2023-05-16T02:04:44;34.77;;;13.27;;
20970;SDS011;10644;48.834;10.088;2023-05-16T02:07:09;16.83;;;11.83;;
20970;SDS011;10644;48.834;10.088;2023-05-16T02:09:34;15.07;;;11.10;;
20970;SDS011;10644;48.834;10.088;2023-05-16T02:12:02;19.33;;;12.10;;
20970;SDS011;10644;48.834;10.088;2023-05-16T02:14:31;19.73;;;12.50;;
20970;SDS011;10644;48.834;10.088;2023-05-16T02:16:56;26.43;;;13.00;;
20970;SDS011;10644;48.834;10.088;2023-05-16T02:19:22;19.27;;;13.17;;
20970;SDS011;10644;48.834;10.088;2023-05-16T02:21:48;21.30;;;13.20;;
20970;SDS011;10644;48.834;10.088;2023-05-16T02:24:17;20.10;;;12.13;;
20970;SDS011;10644;48.834;10.088;2023-05-16T02:26:43;18.07;;;12.67;;
20970;SDS011;10644;48.834;10.088;2023-05-16T02:29:08;16.97;;;12.20;;
20970;SDS011;10644;48.834;10.088;2023-05-16T02:31:36;18.47;;;12.60;;
20970;SDS011;10644;48.834;10.088;2023-05-16T02:34:04;17.83;;;11.40;;
20970;SDS011;10644;48.834;10.088;2023-05-16T02:36:29;37.57;;;14.60;;
20970;SDS011;10644;48.834;10.088;2023-05-16T02:38:56;17.47;;;11.50;;
20970;SDS011;10644;48.834;10.088;2023-05-16T02:41:23;21.00;;;12.90;;
20970;SDS011;10644;48.834;10.088;2023-05-16T02:43:49;33.73;;;13.50;;
20970;SDS011;10644;48.834;10.088;2023-05-16T02:48:51;22.33;;;12.70;;
20970;SDS011;10644;48.834;10.088;2023-05-16T02:51:18;20.10;;;13.90;;
20970;SDS011;10644;48.834;10.088;2023-05-16T02:53:44;25.97;;;14.90;;
20970;SDS011;10644;48.834;10.088;2023-05-16T02:56:10;18.97;;;13.27;;
20970;SDS011;10644;48.834;10.088;2023-05-16T02:58:37;21.97;;;13.60;;
20970;SDS011;10644;48.834;10.088;2023-05-16T03:01:03;22.13;;;13.40;;
20970;SDS011;10644;48.834;10.088;2023-05-16T03:03:28;25.20;;;13.30;;
20970;SDS011;10644;48.834;10.088;2023-05-16T03:05:54;18.40;;;12.37;;
20970;SDS011;10644;48.834;10.088;2023-05-16T03:08:19;20.10;;;12.83;;
20970;SDS011;10644;48.834;10.088;2023-05-16T03:10:45;19.30;;;13.33;;
20970;SDS011;10644;48.834;10.088;2023-05-16T03:13:10;18.53;;;12.90;;
20970;SDS011;10644;48.834;10.088;2023-05-16T03:15:36;18.50;;;12.30;;
20970;SDS011;10644;48.834;10.088;2023-05-16T03:18:03;21.43;;;12.30;;
20970;SDS011;10644;48.834;10.088;2023-05-16T03:20:29;22.60;;;12.93;;
20970;SDS011;10644;48.834;10.088;2023-05-16T03:22:56;16.23;;;12.43;;
20970;SDS011;10644;48.834;10.088;2023-05-16T03:25:22;20.30;;;12.80;;
20970;SDS011;10644;48.834;10.088;2023-05-16T03:27:54;22.30;;;12.17;;
20970;SDS011;10644;48.834;10.088;2023-05-16T03:30:20;19.27;;;13.03;;
20970;SDS011;10644;48.834;10.088;2023-05-16T03:32:46;17.83;;;12.20;;
20970;SDS011;10644;48.834;10.088;2023-05-16T03:35:12;16.90;;;11.60;;
20970;SDS011;10644;48.834;10.088;2023-05-16T03:37:37;25.90;;;12.37;;
20970;SDS011;10644;48.834;10.088;2023-05-16T03:40:03;16.50;;;11.50;;
20970;SDS011;10644;48.834;10.088;2023-05-16T03:42:30;24.17;;;16.40;;
20970;SDS011;10644;48.834;10.088;2023-05-16T03:44:56;18.90;;;12.40;;
20970;SDS011;10644;48.834;10.088;2023-05-16T03:47:21;29.13;;;14.70;;
20970;SDS011;10644;48.834;10.088;2023-05-16T03:49:50;24.70;;;13.13;;
20970;SDS011;10644;48.834;10.088;2023-05-16T03:52:22;25.10;;;12.73;;
20970;SDS011;10644;48.834;10.088;2023-05-16T03:54:51;28.90;;;13.57;;
20970;SDS011;10644;48.834;10.088;2023-05-16T03:57:19;52.53;;;21.30;;
20970;SDS011;10644;48.834;10.088;2023-05-16T03:59:44;36.03;;;20.77;;
20970;SDS011;10644;48.834;10.088;2023-05-16T04:02:10;41.37;;;23.67;;
20970;SDS011;10644;48.834;10.088;2023-05-16T04:04:36;25.43;;;14.60;;
20970;SDS011;10644;48.834;10.088;2023-05-16T04:07:01;29.30;;;14.10;;
20970;SDS011;10644;48.834;10.088;2023-05-16T04:09:26;33.10;;;14.50;;
20970;SDS011;10644;48.834;10.088;2023-05-16T04:11:52;25.80;;;13.47;;
20970;SDS011;10644;48.834;10.088;2023-05-16T04:14:21;26.83;;;13.20;;
20970;SDS011;10644;48.834;10.088;2023-05-16T04:16:49;30.87;;;15.40;;
20970;SDS011;10644;48.834;10.088;2023-05-16T04:19:17;53.37;;;17.93;;
20970;SDS011;10644;48.834;10.088;2023-05-16T04:21:43;28.07;;;15.97;;
20970;SDS011;10644;48.834;10.088;2023-05-16T04:24:08;31.00;;;14.70;;
20970;SDS011;10644;48.834;10.088;2023-05-16T04:26:33;28.80;;;17.30;;
20970;SDS011;10644;48.834;10.088;2023-05-16T04:28:59;29.43;;;15.50;;
20970;SDS011;10644;48.834;10.088;2023-05-16T04:31:25;35.80;;;19.73;;
20970;SDS011;10644;48.834;10.088;2023-05-16T04:33:50;36.40;;;21.93;;
20970;SDS011;10644;48.834;10.088;2023-05-16T04:36:17;32.00;;;18.60;;
20970;SDS011;10644;48.834;10.088;2023-05-16T04:38:42;41.80;;;21.50;;
20970;SDS011;10644;48.834;10.088;2023-05-16T04:41:08;37.30;;;20.67;;
20970;SDS011;10644;48.834;10.088;2023-05-16T04:43:33;46.77;;;22.83;;
20970;SDS011;10644;48.834;10.088;2023-05-16T04:45:59;41.40;;;23.47;;
20970;SDS011;10644;48.834;10.088;2023-05-16T04:48:27;40.10;;;23.07;;
20970;SDS011;10644;48.834;10.088;2023-05-16T04:50:53;45.43;;;24.17;;
20970;SDS011;10644;48.834;10.088;2023-05-16T04:53:19;39.13;;;23.17;;
20970;SDS011;10644;48.834;10.088;2023-05-16T04:55:44;43.03;;;24.20;;
20970;SDS011;10644;48.834;10.088;2023-05-16T04:58:10;44.80;;;23.67;;
20970;SDS011;10644;48.834;10.088;2023-05-16T05:00:35;39.43;;;23.60;;
20970;SDS011;10644;48.834;10.088;2023-05-16T05:03:02;45.53;;;25.30;;
20970;SDS011;10644;48.834;10.088;2023-05-16T05:05:28;41.70;;;23.60;;
20970;SDS011;10644;48.834;10.088;2023-05-16T05:07:56;52.50;;;25.87;;
20970;SDS011;10644;48.834;10.088;2023-05-16T05:10:22;45.20;;;23.17;;
20970;SDS011;10644;48.834;10.088;2023-05-16T05:12:47;45.27;;;25.93;;
20970;SDS011;10644;48.834;10.088;2023-05-16T05:15:13;48.60;;;23.90;;
20970;SDS011;10644;48.834;10.088;2023-05-16T05:17:38;44.50;;;23.70;;
20970;SDS011;10644;48.834;10.088;2023-05-16T05:20:04;41.17;;;22.73;;
20970;SDS011;10644;48.834;10.088;2023-05-16T05:22:34;47.67;;;23.53;;
20970;SDS011;10644;48.834;10.088;2023-05-16T05:24:59;42.90;;;22.63;;
20970;SDS011;10644;48.834;10.088;2023-05-16T05:27:25;42.90;;;23.77;;
20970;SDS011;10644;48.834;10.088;2023-05-16T05:29:51;43.10;;;24.30;;
20970;SDS011;10644;48.834;10.088;2023-05-16T05:32:19;40.63;;;23.80;;
20970;SDS011;10644;48.834;10.088;2023-05-16T05:34:46;44.03;;;26.23;;
20970;SDS011;10644;48.834;10.088;2023-05-16T05:37:12;47.77;;;26.03;;
20970;SDS011;10644;48.834;10.088;2023-05-16T05:39:38;36.47;;;22.80;;
20970;SDS011;10644;48.834;10.088;2023-05-16T05:42:03;50.70;;;27.40;;
20970;SDS011;10644;48.834;10.088;2023-05-16T05:44:29;57.93;;;26.10;;
20970;SDS011;10644;48.834;10.088;2023-05-16T05:46:54;53.93;;;26.90;;
20970;SDS011;10644;48.834;10.088;2023-05-16T05:49:21;52.03;;;25.40;;
20970;SDS011;10644;48.834;10.088;2023-05-16T05:51:47;59.23;;;28.80;;
20970;SDS011;10644;48.834;10.088;2023-05-16T05:54:16;52.83;;;24.60;;
20970;SDS011;10644;48.834;10.088;2023-05-16T05:56:47;50.63;;;24.80;;
20970;SDS011;10644;48.834;10.088;2023-05-16T05:59:15;47.07;;;25.87;;
20970;SDS011;10644;48.834;10.088;2023-05-16T06:01:41;59.60;;;27.33;;
20970;SDS011;10644;48.834;10.088;2023-05-16T06:04:08;45.70;;;25.47;;
20970;SDS011;10644;48.834;10.088;2023-05-16T06:06:34;53.27;;;26.93;;
20970;SDS011;10644;48.834;10.088;2023-05-16T06:08:59;55.37;;;26.90;;
20970;SDS011;10644;48.834;10.088;2023-05-16T06:11:27;49.07;;;25.50;;
20970;SDS011;10644;48.834;10.088;2023-05-16T06:13:55;49.37;;;27.13;;
20970;SDS011;10644;48.834;10.088;2023-05-16T06:16:24;47.50;;;26.20;;
20970;SDS011;10644;48.834;10.088;2023-05-16T06:18:50;51.03;;;25.60;;
20970;SDS011;10644;48.834;10.088;2023-05-16T06:21:15;46.43;;;25.90;;
20970;SDS011;10644;48.834;10.088;2023-05-16T06:23:41;47.40;;;25.47;;
20970;SDS011;10644;48.834;10.088;2023-05-16T06:26:06;48.80;;;25.53;;
20970;SDS011;10644;48.834;10.088;2023-05-16T06:28:32;46.73;;;24.10;;
20970;SDS011;10644;48.834;10.088;2023-05-16T06:30:57;49.33;;;26.83;;
20970;SDS011;10644;48.834;10.088;2023-05-16T06:33:22;45.07;;;24.63;;
20970;SDS011;10644;48.834;10.088;2023-05-16T06:35:47;45.47;;;25.03;;
20970;SDS011;10644;48.834;10.088;2023-05-16T06:38:14;52.70;;;24.20;;
20970;SDS011;10644;48.834;10.088;2023-05-16T06:40:39;44.30;;;22.53;;
20970;SDS011;10644;48.834;10.088;2023-05-16T06:43:05;41.60;;;21.57;;
20970;SDS011;10644;48.834;10.088;2023-05-16T06:45:30;42.67;;;22.67;;
20970;SDS011;10644;48.834;10.088;2023-05-16T06:47:56;46.80;;;24.17;;
20970;SDS011;10644;48.834;10.088;2023-05-16T06:50:21;38.10;;;21.13;;
20970;SDS011;10644;48.834;10.088;2023-05-16T06:52:47;48.03;;;23.80;;
20970;SDS011;10644;48.834;10.088;2023-05-16T06:55:12;43.60;;;21.80;;
20970;SDS011;10644;48.834;10.088;2023-05-16T06:57:38;41.10;;;22.57;;
20970;SDS011;10644;48.834;10.088;2023-05-16T07:00:03;50.30;;;25.20;;
20970;SDS011;10644;48.834;10.088;2023-05-16T07:02:29;44.53;;;22.20;;
20970;SDS011;10644;48.834;10.088;2023-05-16T07:04:55;42.67;;;21.50;;
20970;SDS011;10644;48.834;10.088;2023-05-16T07:07:21;43.50;;;22.03;;
20970;SDS011;10644;48.834;10.088;2023-05-16T07:09:46;40.40;;;21.67;;
20970;SDS011;10644;48.834;10.088;2023-05-16T07:12:11;45.50;;;22.90;;
20970;SDS011;10644;48.834;10.088;2023-05-16T07:14:37;38.50;;;21.57;;
20970;SDS011;10644;48.834;10.088;2023-05-16T07:17:02;34.60;;;20.20;;
20970;SDS011;10644;48.834;10.088;2023-05-16T07:19:28;34.33;;;21.53;;
20970;SDS011;10644;48.834;10.088;2023-05-16T07:21:53;38.93;;;21.70;;
20970;SDS011;10644;48.834;10.088;2023-05-16T07:24:21;39.13;;;23.77;;
20970;SDS011;10644;48.834;10.088;2023-05-16T07:27:09;39.00;;;20.90;;
20970;SDS011;10644;48.834;10.088;2023-05-16T07:29:34;35.00;;;21.97;;
20970;SDS011;10644;48.834;10.088;2023-05-16T07:32:01;36.40;;;21.90;;
20970;SDS011;10644;48.834;10.088;2023-05-16T07:34:27;36.33;;;21.30;;
20970;SDS011;10644;48.834;10.088;2023-05-16T07:36:55;38.17;;;22.17;;
20970;SDS011;10644;48.834;10.088;2023-05-16T07:39:21;38.77;;;22.00;;
20970;SDS011;10644;48.834;10.088;2023-05-16T07:41:46;36.03;;;22.00;;
20970;SDS011;10644;48.834;10.088;2023-05-16T07:44:11;37.50;;;21.10;;
20970;SDS011;10644;48.834;10.088;2023-05-16T07:46:36;50.00;;;23.03;;
20970;SDS011;10644;48.834;10.088;2023-05-16T07:49:02;35.80;;;20.40;;
20970;SDS011;10644;48.834;10.088;2023-05-16T07:51:27;38.40;;;21.20;;
20970;SDS011;10644;48.834;10.088;2023-05-16T07:53:52;39.17;;;21.90;;
20970;SDS011;10644;48.834;10.088;2023-05-16T07:56:21;36.77;;;22.23;;
20970;SDS011;10644;48.834;10.088;2023-05-16T07:58:47;39.53;;;22.13;;
20970;SDS011;10644;48.834;10.088;2023-05-16T08:01:13;33.40;;;20.70;;
20970;SDS011;10644;48.834;10.088;2023-05-16T08:03:38;32.30;;;20.87;;
20970;SDS011;10644;48.834;10.088;2023-05-16T08:06:06;35.70;;;20.17;;
20970;SDS011;10644;48.834;10.088;2023-05-16T08:08:31;49.50;;;22.60;;
20970;SDS011;10644;48.834;10.088;2023-05-16T08:11:00;39.13;;;21.90;;
20970;SDS011;10644;48.834;10.088;2023-05-16T08:13:32;46.90;;;22.83;;
20970;SDS011;10644;48.834;10.088;2023-05-16T08:15:57;33.67;;;20.40;;
20970;SDS011;10644;48.834;10.088;2023-05-16T08:18:22;34.83;;;20.93;;
20970;SDS011;10644;48.834;10.088;2023-05-16T08:20:48;43.43;;;21.50;;
20970;SDS011;10644;48.834;10.088;2023-05-16T08:23:13;42.80;;;21.13;;
20970;SDS011;10644;48.834;10.088;2023-05-16T08:25:38;37.30;;;21.30;;
20970;SDS011;10644;48.834;10.088;2023-05-16T08:28:04;49.17;;;20.10;;
20970;SDS011;10644;48.834;10.088;2023-05-16T08:30:29;41.23;;;20.27;;
20970;SDS011;10644;48.834;10.088;2023-05-16T08:32:57;35.40;;;18.87;;
20970;SDS011;10644;48.834;10.088;2023-05-16T08:35:23;36.63;;;20.13;;
20970;SDS011;10644;48.834;10.088;2023-05-16T08:37:48;35.73;;;19.27;;
20970;SDS011;10644;48.834;10.088;2023-05-16T08:40:13;36.00;;;20.23;;
20970;SDS011;10644;48.834;10.088;2023-05-16T08:42:40;40.30;;;19.73;;
20970;SDS011;10644;48.834;10.088;2023-05-16T08:45:06;32.90;;;18.23;;
20970;SDS011;10644;48.834;10.088;2023-05-16T08:47:32;31.93;;;18.40;;
20970;SDS011;10644;48.834;10.088;2023-05-16T08:50:01;30.37;;;19.03;;
20970;SDS011;10644;48.834;10.088;2023-05-16T08:52:27;35.63;;;15.17;;
20970;SDS011;10644;48.834;10.088;2023-05-16T08:55:00;27.97;;;17.97;;
20970;SDS011;10644;48.834;10.088;2023-05-16T08:57:30;32.67;;;19.80;;
20970;SDS011;10644;48.834;10.088;2023-05-16T08:59:56;30.40;;;19.47;;
20970;SDS011;10644;48.834;10.088;2023-05-16T09:02:22;35.60;;;19.07;;
20970;SDS011;10644;48.834;10.088;2023-05-16T09:04:50;32.80;;;20.40;;
20970;SDS011;10644;48.834;10.088;2023-05-16T09:07:19;33.67;;;20.27;;
20970;SDS011;10644;48.834;10.088;2023-05-16T09:09:44;30.93;;;17.90;;
20970;SDS011;10644;48.834;10.088;2023-05-16T09:12:09;29.10;;;16.70;;
20970;SDS011;10644;48.834;10.088;2023-05-16T09:14:36;36.60;;;19.50;;
20970;SDS011;10644;48.834;10.088;2023-05-16T09:17:02;30.50;;;17.93;;
20970;SDS011;10644;48.834;10.088;2023-05-16T09:22:03;22.87;;;16.53;;
20970;SDS011;10644;48.834;10.088;2023-05-16T09:24:31;27.23;;;16.90;;
20970;SDS011;10644;48.834;10.088;2023-05-16T09:27:06;28.50;;;16.47;;
20970;SDS011;10644;48.834;10.088;2023-05-16T09:29:33;24.93;;;16.50;;
20970;SDS011;10644;48.834;10.088;2023-05-16T09:32:11;20.90;;;14.30;;
20970;SDS011;10644;48.834;10.088;2023-05-16T09:34:44;25.83;;;16.43;;
20970;SDS011;10644;48.834;10.088;2023-05-16T09:37:16;28.57;;;14.93;;
20970;SDS011;10644;48.834;10.088;2023-05-16T09:39:46;31.10;;;17.30;;
20970;SDS011;10644;48.834;10.088;2023-05-16T09:42:18;24.67;;;14.90;;
20970;SDS011;10644;48.834;10.088;2023-05-16T09:44:53;25.93;;;12.43;;
20970;SDS011;10644;48.834;10.088;2023-05-16T09:47:20;30.63;;;15.97;;
20970;SDS011;10644;48.834;10.088;2023-05-16T09:49:49;30.60;;;16.80;;
20970;SDS011;10644;48.834;10.088;2023-05-16T09:52:16;30.13;;;14.83;;
20970;SDS011;10644;48.834;10.088;2023-05-16T09:54:42;29.23;;;17.57;;
20970;SDS011;10644;48.834;10.088;2023-05-16T09:57:08;26.47;;;18.23;;
20970;SDS011;10644;48.834;10.088;2023-05-16T09:59:34;23.63;;;15.70;;
20970;SDS011;10644;48.834;10.088;2023-05-16T10:02:01;34.40;;;16.20;;
20970;SDS011;10644;48.834;10.088;2023-05-16T10:04:27;22.03;;;14.83;;
20970;SDS011;10644;48.834;10.088;2023-05-16T10:06:53;41.23;;;16.70;;
20970;SDS011;10644;48.834;10.088;2023-05-16T10:09:22;27.53;;;15.93;;
20970;SDS011;10644;48.834;10.088;2023-05-16T10:11:48;27.30;;;16.00;;
20970;SDS011;10644;48.834;10.088;2023-05-16T10:14:16;29.13;;;15.57;;
20970;SDS011;10644;48.834;10.088;2023-05-16T10:16:43;27.00;;;15.40;;
20970;SDS011;10644;48.834;10.088;2023-05-16T10:19:12;27.03;;;14.60;;
20970;SDS011;10644;48.834;10.088;2023-05-16T10:21:39;25.87;;;14.40;;
20970;SDS011;10644;48.834;10.088;2023-05-16T10:24:10;18.50;;;12.33;;
20970;SDS011;10644;48.834;10.088;2023-05-16T10:26:38;22.60;;;12.90;;
20970;SDS011;10644;48.834;10.088;2023-05-16T10:29:03;22.17;;;12.30;;
20970;SDS011;10644;48.834;10.088;2023-05-16T10:31:30;21.10;;;14.47;;
20970;SDS011;10644;48.834;10.088;2023-05-16T10:33:55;25.93;;;14.63;;
20970;SDS011;10644;48.834;10.088;2023-05-16T10:36:21;22.77;;;14.93;;
20970;SDS011;10644;48.834;10.088;2023-05-16T10:38:47;22.23;;;14.13;;
20970;SDS011;10644;48.834;10.088;2023-05-16T10:41:14;42.63;;;20.60;;
20970;SDS011;10644;48.834;10.088;2023-05-16T10:43:42;32.33;;;16.80;;
20970;SDS011;10644;48.834;10.088;2023-05-16T10:46:11;37.13;;;15.87;;
20970;SDS011;10644;48.834;10.088;2023-05-16T10:48:38;36.50;;;16.53;;
20970;SDS011;10644;48.834;10.088;2023-05-16T10:54:04;25.80;;;15.50;;
20970;SDS011;10644;48.834;10.088;2023-05-16T10:56:31;34.83;;;17.50;;
20970;SDS011;10644;48.834;10.088;2023-05-16T10:58:58;27.97;;;16.73;;
20970;SDS011;10644;48.834;10.088;2023-05-16T11:01:25;29.23;;;16.80;;
20970;SDS011;10644;48.834;10.088;2023-05-16T11:06:30;30.33;;;16.87;;
20970;SDS011;10644;48.834;10.088;2023-05-16T11:11:38;35.73;;;17.07;;
20970;SDS011;10644;48.834;10.088;2023-05-16T11:19:41;24.30;;;12.50;;
20970;SDS011;10644;48.834;10.088;2023-05-16T11:25:06;22.70;;;13.80;;
20970;SDS011;10644;48.834;10.088;2023-05-16T11:27:34;32.83;;;16.70;;
20970;SDS011;10644;48.834;10.088;2023-05-16T11:30:10;25.17;;;14.70;;
20970;SDS011;10644;48.834;10.088;2023-05-16T11:32:38;26.80;;;14.70;;
20970;SDS011;10644;48.834;10.088;2023-05-16T11:35:05;31.40;;;15.90;;
20970;SDS011;10644;48.834;10.088;2023-05-16T11:37:33;25.77;;;15.33;;
20970;SDS011;10644;48.834;10.088;2023-05-16T11:40:00;44.97;;;14.27;;
20970;SDS011;10644;48.834;10.088;2023-05-16T11:42:32;32.77;;;15.37;;
20970;SDS011;10644;48.834;10.088;2023-05-16T11:45:03;36.90;;;15.33;;
20970;SDS011;10644;48.834;10.088;2023-05-16T11:47:30;30.53;;;15.60;;
20970;SDS011;10644;48.834;10.088;2023-05-16T11:50:00;25.40;;;15.00;;
20970;SDS011;10644;48.834;10.088;2023-05-16T11:52:31;29.77;;;14.70;;
20970;SDS011;10644;48.834;10.088;2023-05-16T11:54:59;22.30;;;14.10;;
20970;SDS011;10644;48.834;10.088;2023-05-16T11:57:25;30.40;;;17.97;;
20970;SDS011;10644;48.834;10.088;2023-05-16T11:59:53;25.83;;;13.63;;
20970;SDS011;10644;48.834;10.088;2023-05-16T12:02:19;20.50;;;12.40;;
20970;SDS011;10644;48.834;10.088;2023-05-16T12:04:47;21.57;;;10.37;;
20970;SDS011;10644;48.834;10.088;2023-05-16T12:07:14;21.37;;;12.10;;
20970;SDS011;10644;48.834;10.088;2023-05-16T12:09:40;28.40;;;12.20;;
20970;SDS011;10644;48.834;10.088;2023-05-16T12:12:06;27.47;;;12.70;;
20970;SDS011;10644;48.834;10.088;2023-05-16T12:14:31;18.73;;;12.00;;
20970;SDS011;10644;48.834;10.088;2023-05-16T12:16:57;22.87;;;11.47;;
20970;SDS011;10644;48.834;10.088;2023-05-16T12:19:22;22.27;;;10.93;;
20970;SDS011;10644;48.834;10.088;2023-05-16T12:21:51;20.13;;;9.93;;
20970;SDS011;10644;48.834;10.088;2023-05-16T12:24:18;19.63;;;10.27;;
20970;SDS011;10644;48.834;10.088;2023-05-16T12:26:46;17.00;;;11.60;;
20970;SDS011;10644;48.834;10.088;2023-05-16T12:29:11;20.03;;;10.77;;
20970;SDS011;10644;48.834;10.088;2023-05-16T12:31:40;18.93;;;12.00;;
20970;SDS011;10644;48.834;10.088;2023-05-16T12:34:18;17.47;;;10.23;;
20970;SDS011;10644;48.834;10.088;2023-05-16T12:36:46;21.70;;;12.70;;
20970;SDS011;10644;48.834;10.088;2023-05-16T12:39:15;20.50;;;11.03;;
20970;SDS011;10644;48.834;10.088;2023-05-16T12:41:41;25.07;;;12.10;;
20970;SDS011;10644;48.834;10.088;2023-05-16T12:44:10;26.00;;;11.87;;
20970;SDS011;10644;48.834;10.088;2023-05-16T12:46:44;27.10;;;12.80;;
20970;SDS011;10644;48.834;10.088;2023-05-16T12:49:12;28.27;;;13.50;;
20970;SDS011;10644;48.834;10.088;2023-05-16T12:51:38;20.83;;;11.67;;
20970;SDS011;10644;48.834;10.088;2023-05-16T12:54:08;27.07;;;13.30;;
20970;SDS011;10644;48.834;10.088;2023-05-16T12:56:35;24.97;;;12.77;;
20970;SDS011;10644;48.834;10.088;2023-05-16T12:59:02;27.60;;;13.43;;
20970;SDS011;10644;48.834;10.088;2023-05-16T13:01:27;30.80;;;13.47;;
20970;SDS011;10644;48.834;10.088;2023-05-16T13:03:53;29.10;;;13.90;;
20970;SDS011;10644;48.834;10.088;2023-05-16T13:06:18;32.63;;;13.30;;
20970;SDS011;10644;48.834;10.088;2023-05-16T13:08:43;55.63;;;20.57;;
20970;SDS011;10644;48.834;10.088;2023-05-16T13:11:08;20.63;;;13.50;;
20970;SDS011;10644;48.834;10.088;2023-05-16T13:13:34;29.80;;;13.97;;
20970;SDS011;10644;48.834;10.088;2023-05-16T13:15:59;201.93;;;48.63;;
20970;SDS011;10644;48.834;10.088;2023-05-16T13:18:25;142.73;;;30.47;;
20970;SDS011;10644;48.834;10.088;2023-05-16T13:20:52;29.53;;;14.83;;
20970;SDS011;10644;48.834;10.088;2023-05-16T13:23:18;52.47;;;19.43;;
20970;SDS011;10644;48.834;10.088;2023-05-16T13:25:43;91.97;;;25.83;;
20970;SDS011;10644;48.834;10.088;2023-05-16T13:28:08;101.30;;;28.30;;
20970;SDS011;10644;48.834;10.088;2023-05-16T13:30:34;127.50;;;35.53;;
20970;SDS011;10644;48.834;10.088;2023-05-16T13:33:02;69.40;;;19.47;;
20970;SDS011;10644;48.834;10.088;2023-05-16T13:35:28;33.90;;;14.63;;
20970;SDS011;10644;48.834;10.088;2023-05-16T13:37:53;36.90;;;15.10;;
20970;SDS011;10644;48.834;10.088;2023-05-16T13:40:19;33.67;;;13.70;;
20970;SDS011;10644;48.834;10.088;2023-05-16T13:42:44;60.37;;;18.93;;
20970;SDS011;10644;48.834;10.088;2023-05-16T13:45:10;39.57;;;15.73;;
20970;SDS011;10644;48.834;10.088;2023-05-16T13:47:36;33.00;;;13.87;;
20970;SDS011;10644;48.834;10.088;2023-05-16T13:50:02;25.93;;;12.53;;
20970;SDS011;10644;48.834;10.088;2023-05-16T13:52:31;62.30;;;20.10;;
20970;SDS011;10644;48.834;10.088;2023-05-16T13:54:57;34.80;;;13.87;;
20970;SDS011;10644;48.834;10.088;2023-05-16T13:57:22;92.30;;;26.20;;
20970;SDS011;10644;48.834;10.088;2023-05-16T13:59:48;24.63;;;10.73;;
20970;SDS011;10644;48.834;10.088;2023-05-16T14:02:13;27.93;;;11.80;;
20970;SDS011;10644;48.834;10.088;2023-05-16T14:04:39;71.03;;;23.40;;
20970;SDS011;10644;48.834;10.088;2023-05-16T14:07:04;39.00;;;13.47;;
20970;SDS011;10644;48.834;10.088;2023-05-16T14:09:30;31.23;;;11.70;;
20970;SDS011;10644;48.834;10.088;2023-05-16T14:11:58;45.23;;;12.80;;
20970;SDS011;10644;48.834;10.088;2023-05-16T14:14:24;22.60;;;9.60;;
20970;SDS011;10644;48.834;10.088;2023-05-16T14:16:49;49.43;;;14.83;;
20970;SDS011;10644;48.834;10.088;2023-05-16T14:19:15;28.10;;;9.03;;
20970;SDS011;10644;48.834;10.088;2023-05-16T14:21:40;28.17;;;9.77;;
20970;SDS011;10644;48.834;10.088;2023-05-16T14:24:06;12.10;;;5.83;;
20970;SDS011;10644;48.834;10.088;2023-05-16T14:26:32;26.80;;;9.67;;
20970;SDS011;10644;48.834;10.088;2023-05-16T14:28:57;19.30;;;7.47;;
20970;SDS011;10644;48.834;10.088;2023-05-16T14:31:23;27.13;;;8.60;;
20970;SDS011;10644;48.834;10.088;2023-05-16T14:33:48;26.13;;;8.00;;
20970;SDS011;10644;48.834;10.088;2023-05-16T14:36:14;16.03;;;7.50;;
20970;SDS011;10644;48.834;10.088;2023-05-16T14:38:40;16.23;;;7.23;;
20970;SDS011;10644;48.834;10.088;2023-05-16T14:41:05;15.83;;;6.70;;